createdAt,value
2017-02-14T00:00:08.349Z,101589
2017-02-14T00:01:09.192Z,101586
2017-02-14T00:02:08.474Z,101589
2017-02-14T00:03:09.857Z,101589
2017-02-14T00:04:09.575Z,101592
2017-02-14T00:05:09.689Z,101592
2017-02-14T00:06:09.820Z,101597
2017-02-14T00:07:08.828Z,101591
2017-02-14T00:08:10.222Z,101579
2017-02-14T00:09:08.954Z,101582
2017-02-14T00:10:09.966Z,101584
2017-02-14T00:11:09.067Z,101591
2017-02-14T00:12:09.093Z,101597
2017-02-14T00:13:09.069Z,101591
2017-02-14T00:14:09.495Z,101587
2017-02-14T00:15:10.167Z,101587
2017-02-14T00:16:09.204Z,101584
2017-02-14T00:17:10.281Z,101584
2017-02-14T00:18:10.364Z,101584
2017-02-14T00:19:09.398Z,101586
2017-02-14T00:20:10.727Z,101585
2017-02-14T00:21:09.442Z,101588
2017-02-14T00:22:09.489Z,101589
2017-02-14T00:23:10.488Z,101582
2017-02-14T00:24:10.522Z,101584
2017-02-14T00:25:09.606Z,101587
2017-02-14T00:26:10.023Z,101585
2017-02-14T00:27:10.723Z,101589
2017-02-14T00:28:09.803Z,101585
2017-02-14T00:29:10.839Z,101587
2017-02-14T00:30:09.979Z,101584
2017-02-14T00:31:11.041Z,101584
2017-02-14T00:32:11.321Z,101583
2017-02-14T00:33:10.124Z,101580
2017-02-14T00:34:11.103Z,101582
2017-02-14T00:35:10.142Z,101575
2017-02-14T00:36:11.228Z,101575
2017-02-14T00:37:10.321Z,101568
2017-02-14T00:38:11.625Z,101582
2017-02-14T00:39:11.379Z,101575
2017-02-14T00:40:11.381Z,101575
2017-02-14T00:41:11.386Z,101577
2017-02-14T00:42:11.395Z,101570
2017-02-14T00:43:11.415Z,101571
2017-02-14T00:44:11.725Z,101578
2017-02-14T00:45:10.533Z,101581
2017-02-14T00:46:11.597Z,101577
2017-02-14T00:47:11.643Z,101576
2017-02-14T00:48:10.819Z,101576
2017-02-14T00:49:11.794Z,101577
2017-02-14T00:50:12.198Z,101576
2017-02-14T00:51:11.970Z,101580
2017-02-14T00:52:11.980Z,101578
2017-02-14T00:53:12.025Z,101585
2017-02-14T00:54:12.097Z,101582
2017-02-14T00:55:12.115Z,101582
2017-02-14T00:56:12.458Z,101581
2017-02-14T00:57:11.317Z,101580
2017-02-14T00:58:11.358Z,101579
2017-02-14T00:59:12.338Z,101576
2017-02-14T01:00:12.389Z,101573
2017-02-14T01:01:11.457Z,101564
2017-02-14T01:02:11.853Z,101567
2017-02-14T01:03:12.568Z,101575
2017-02-14T01:04:12.614Z,101572
2017-02-14T01:05:11.716Z,101570
2017-02-14T01:06:12.727Z,101572
2017-02-14T01:07:12.730Z,101571
2017-02-14T01:08:12.066Z,101570
2017-02-14T01:09:12.818Z,101567
2017-02-14T01:10:11.944Z,101567
2017-02-14T01:11:12.021Z,101570
2017-02-14T01:12:13.039Z,101571
2017-02-14T01:13:12.130Z,101570
2017-02-14T01:14:12.474Z,101568
2017-02-14T01:15:12.280Z,101569
2017-02-14T01:16:12.335Z,101565
2017-02-14T01:17:12.493Z,101565
2017-02-14T01:18:13.450Z,101562
2017-02-14T01:19:12.463Z,101558
2017-02-14T01:20:13.737Z,101560
2017-02-14T01:21:12.584Z,101553
2017-02-14T01:22:13.610Z,101560
2017-02-14T01:23:13.648Z,101566
2017-02-14T01:24:12.747Z,101566
2017-02-14T01:25:13.761Z,101561
2017-02-14T01:26:13.110Z,101567
2017-02-14T01:27:13.828Z,101561
2017-02-14T01:28:13.811Z,101561
2017-02-14T01:29:13.941Z,101558
2017-02-14T01:30:13.944Z,101558
2017-02-14T01:31:13.047Z,101559
2017-02-14T01:32:14.261Z,101559
2017-02-14T01:33:13.991Z,101558
2017-02-14T01:34:13.027Z,101552
2017-02-14T01:35:13.092Z,101550
2017-02-14T01:36:13.168Z,101557
2017-02-14T01:37:14.210Z,101559
2017-02-14T01:38:14.497Z,101554
2017-02-14T01:39:14.254Z,101548
2017-02-14T01:40:14.339Z,101557
2017-02-14T01:41:13.401Z,101557
2017-02-14T01:42:13.485Z,101554
2017-02-14T01:43:13.514Z,101553
2017-02-14T01:44:14.875Z,101556
2017-02-14T01:45:14.717Z,101551
2017-02-14T01:46:13.715Z,101557
2017-02-14T01:47:13.724Z,101552
2017-02-14T01:48:14.784Z,101558
2017-02-14T01:49:14.858Z,101562
2017-02-14T01:50:14.153Z,101556
2017-02-14T01:51:14.982Z,101561
2017-02-14T01:52:15.027Z,101572
2017-02-14T01:53:14.134Z,101558
2017-02-14T01:54:14.215Z,101566
2017-02-14T01:55:14.268Z,101564
2017-02-14T01:56:14.572Z,101562
2017-02-14T01:57:14.346Z,101558
2017-02-14T01:58:14.402Z,101555
2017-02-14T01:59:15.413Z,101560
2017-02-14T02:00:15.514Z,101559
2017-02-14T02:01:14.595Z,101555
2017-02-14T02:02:14.965Z,101557
2017-02-14T02:03:15.691Z,101557
2017-02-14T02:04:14.725Z,101551
2017-02-14T02:05:14.866Z,101551
2017-02-14T02:06:15.821Z,101548
2017-02-14T02:07:15.886Z,101549
2017-02-14T02:08:16.195Z,101551
2017-02-14T02:09:16.006Z,101546
2017-02-14T02:10:15.039Z,101547
2017-02-14T02:11:16.037Z,101544
2017-02-14T02:12:16.137Z,101540
2017-02-14T02:13:15.189Z,101546
2017-02-14T02:14:15.558Z,101549
2017-02-14T02:15:16.294Z,101549
2017-02-14T02:16:16.366Z,101552
2017-02-14T02:17:15.417Z,101547
2017-02-14T02:18:16.414Z,101548
2017-02-14T02:19:15.485Z,101548
2017-02-14T02:20:15.852Z,101541
2017-02-14T02:21:16.524Z,101542
2017-02-14T02:22:15.549Z,101540
2017-02-14T02:23:16.576Z,101540
2017-02-14T02:24:15.641Z,101539
2017-02-14T02:25:16.746Z,101533
2017-02-14T02:26:16.054Z,101540
2017-02-14T02:27:15.835Z,101539
2017-02-14T02:28:16.879Z,101530
2017-02-14T02:29:15.941Z,101530
2017-02-14T02:30:16.996Z,101528
2017-02-14T02:31:16.114Z,101526
2017-02-14T02:32:16.399Z,101525
2017-02-14T02:33:16.189Z,101522
2017-02-14T02:34:17.153Z,101518
2017-02-14T02:35:16.186Z,101516
2017-02-14T02:36:17.202Z,101515
2017-02-14T02:37:17.203Z,101516
2017-02-14T02:38:16.547Z,101514
2017-02-14T02:39:17.270Z,101510
2017-02-14T02:40:17.267Z,101506
2017-02-14T02:41:16.346Z,101501
2017-02-14T02:42:17.392Z,101504
2017-02-14T02:43:17.415Z,101499
2017-02-14T02:44:17.756Z,101499
2017-02-14T02:45:16.597Z,101504
2017-02-14T02:46:17.532Z,101504
2017-02-14T02:47:16.567Z,101492
2017-02-14T02:48:17.569Z,101488
2017-02-14T02:49:17.647Z,101495
2017-02-14T02:50:17.979Z,101487
2017-02-14T02:51:17.746Z,101492
2017-02-14T02:52:17.735Z,101485
2017-02-14T02:53:16.794Z,101482
2017-02-14T02:54:17.835Z,101492
2017-02-14T02:55:17.902Z,101489
2017-02-14T02:56:17.345Z,101491
2017-02-14T02:57:18.054Z,101491
2017-02-14T02:58:17.137Z,101486
2017-02-14T02:59:17.108Z,101484
2017-02-14T03:00:18.137Z,101481
2017-02-14T03:01:18.229Z,101479
2017-02-14T03:02:18.529Z,101482
2017-02-14T03:03:17.279Z,101483
2017-02-14T03:04:17.351Z,101479
2017-02-14T03:05:18.392Z,101476
2017-02-14T03:06:19.077Z,101472
2017-02-14T03:07:18.490Z,101472
2017-02-14T03:08:17.788Z,101475
2017-02-14T03:09:17.609Z,101477
2017-02-14T03:10:17.672Z,101476
2017-02-14T03:11:18.623Z,101474
2017-02-14T03:12:18.689Z,101463
2017-02-14T03:13:18.730Z,101467
2017-02-14T03:14:18.082Z,101476
2017-02-14T03:15:18.790Z,101463
2017-02-14T03:16:17.837Z,101469
2017-02-14T03:17:17.917Z,101462
2017-02-14T03:18:18.936Z,101464
2017-02-14T03:19:19.014Z,101468
2017-02-14T03:20:20.025Z,101467
2017-02-14T03:21:19.192Z,101459
2017-02-14T03:22:19.212Z,101469
2017-02-14T03:23:18.241Z,101471
2017-02-14T03:24:18.310Z,101476
2017-02-14T03:25:18.360Z,101478
2017-02-14T03:26:19.663Z,101483
2017-02-14T03:27:19.355Z,101486
2017-02-14T03:28:19.339Z,101487
2017-02-14T03:29:18.514Z,101481
2017-02-14T03:30:19.540Z,101488
2017-02-14T03:31:19.617Z,101490
2017-02-14T03:32:19.690Z,101490
2017-02-14T03:33:19.804Z,101490
2017-02-14T03:34:19.884Z,101492
2017-02-14T03:35:19.874Z,101496
2017-02-14T03:36:19.728Z,101494
2017-02-14T03:37:19.931Z,101488
2017-02-14T03:38:20.335Z,101487
2017-02-14T03:39:20.101Z,101490
2017-02-14T03:40:19.073Z,101489
2017-02-14T03:41:20.030Z,101487
2017-02-14T03:42:20.189Z,101483
2017-02-14T03:43:19.279Z,101486
2017-02-14T03:44:19.706Z,101480
2017-02-14T03:45:20.410Z,101481
2017-02-14T03:46:19.583Z,101485
2017-02-14T03:47:19.505Z,101486
2017-02-14T03:48:19.635Z,101482
2017-02-14T03:49:19.711Z,101479
2017-02-14T03:50:21.004Z,101484
2017-02-14T03:51:19.763Z,101489
2017-02-14T03:52:20.819Z,101476
2017-02-14T03:53:19.900Z,101480
2017-02-14T03:54:19.940Z,101488
2017-02-14T03:55:20.995Z,101482
2017-02-14T03:56:20.359Z,101485
2017-02-14T03:57:21.110Z,101471
2017-02-14T03:58:21.196Z,101470
2017-02-14T03:59:21.233Z,101468
2017-02-14T04:00:21.339Z,101457
2017-02-14T04:01:20.443Z,101466
2017-02-14T04:02:21.785Z,101460
2017-02-14T04:03:20.550Z,101460
2017-02-14T04:04:20.667Z,101467
2017-02-14T04:05:20.691Z,101461
2017-02-14T04:06:20.680Z,101469
2017-02-14T04:07:20.811Z,101468
2017-02-14T04:08:21.102Z,101475
2017-02-14T04:09:20.825Z,101471
2017-02-14T04:10:21.819Z,101473
2017-02-14T04:11:21.929Z,101474
2017-02-14T04:12:22.012Z,101473
2017-02-14T04:13:21.099Z,101468
2017-02-14T04:14:22.401Z,101472
2017-02-14T04:15:22.157Z,101470
2017-02-14T04:16:22.174Z,101468
2017-02-14T04:17:22.207Z,101470
2017-02-14T04:18:22.240Z,101469
2017-02-14T04:19:21.354Z,101470
2017-02-14T04:20:22.639Z,101465
2017-02-14T04:21:21.491Z,101467
2017-02-14T04:22:22.557Z,101467
2017-02-14T04:23:22.603Z,101478
2017-02-14T04:24:22.676Z,101482
2017-02-14T04:25:21.733Z,101477
2017-02-14T04:26:23.108Z,101477
2017-02-14T04:27:22.587Z,101484
2017-02-14T04:28:21.940Z,101483
2017-02-14T04:29:22.083Z,101479
2017-02-14T04:30:22.775Z,101489
2017-02-14T04:31:22.212Z,101487
2017-02-14T04:32:22.416Z,101479
2017-02-14T04:33:23.197Z,101485
2017-02-14T04:34:22.323Z,101479
2017-02-14T04:35:23.314Z,101490
2017-02-14T04:36:23.118Z,101479
2017-02-14T04:37:22.492Z,101486
2017-02-14T04:38:22.694Z,101487
2017-02-14T04:39:22.501Z,101483
2017-02-14T04:40:23.544Z,101486
2017-02-14T04:41:23.650Z,101483
2017-02-14T04:42:22.756Z,101487
2017-02-14T04:43:22.741Z,101491
2017-02-14T04:44:23.097Z,101488
2017-02-14T04:45:23.578Z,101486
2017-02-14T04:46:23.889Z,101489
2017-02-14T04:47:23.936Z,101486
2017-02-14T04:48:23.020Z,101485
2017-02-14T04:49:24.017Z,101477
2017-02-14T04:50:23.449Z,101482
2017-02-14T04:51:24.117Z,101482
2017-02-14T04:52:24.123Z,101480
2017-02-14T04:53:24.185Z,101475
2017-02-14T04:54:23.240Z,101482
2017-02-14T04:55:23.312Z,101481
2017-02-14T04:56:24.557Z,101480
2017-02-14T04:57:23.303Z,101484
2017-02-14T04:58:23.434Z,101475
2017-02-14T04:59:23.441Z,101476
2017-02-14T05:00:23.557Z,101469
2017-02-14T05:01:24.627Z,101475
2017-02-14T05:02:25.595Z,101476
2017-02-14T05:03:24.676Z,101474
2017-02-14T05:04:23.808Z,101474
2017-02-14T05:05:24.845Z,101463
2017-02-14T05:06:23.902Z,101460
2017-02-14T05:07:24.007Z,101468
2017-02-14T05:08:24.290Z,101467
2017-02-14T05:09:24.057Z,101466
2017-02-14T05:10:25.069Z,101464
2017-02-14T05:11:24.186Z,101458
2017-02-14T05:12:25.202Z,101462
2017-02-14T05:13:24.306Z,101466
2017-02-14T05:14:25.637Z,101459
2017-02-14T05:15:25.387Z,101458
2017-02-14T05:16:24.453Z,101462
2017-02-14T05:17:25.489Z,101457
2017-02-14T05:18:24.604Z,101453
2017-02-14T05:19:24.658Z,101458
2017-02-14T05:20:24.977Z,101457
2017-02-14T05:21:25.718Z,101458
2017-02-14T05:22:25.769Z,101460
2017-02-14T05:23:25.874Z,101459
2017-02-14T05:24:25.879Z,101456
2017-02-14T05:25:24.927Z,101453
2017-02-14T05:26:25.292Z,101458
2017-02-14T05:27:25.057Z,101456
2017-02-14T05:28:26.078Z,101463
2017-02-14T05:29:25.092Z,101458
2017-02-14T05:30:25.081Z,101464
2017-02-14T05:31:26.086Z,101461
2017-02-14T05:32:25.515Z,101464
2017-02-14T05:33:26.282Z,101461
2017-02-14T05:34:26.263Z,101458
2017-02-14T05:35:25.289Z,101461
2017-02-14T05:36:26.365Z,101464
2017-02-14T05:37:25.374Z,101458
2017-02-14T05:38:25.786Z,101462
2017-02-14T05:39:25.482Z,101466
2017-02-14T05:40:25.491Z,101460
2017-02-14T05:41:26.532Z,101464
2017-02-14T05:42:25.605Z,101467
2017-02-14T05:43:26.582Z,101471
2017-02-14T05:44:26.016Z,101469
2017-02-14T05:45:26.610Z,101476
2017-02-14T05:46:25.788Z,101464
2017-02-14T05:47:26.733Z,101468
2017-02-14T05:48:25.842Z,101470
2017-02-14T05:49:26.867Z,101470
2017-02-14T05:50:27.141Z,101476
2017-02-14T05:51:25.918Z,101473
2017-02-14T05:52:27.484Z,101478
2017-02-14T05:53:27.296Z,101482
2017-02-14T05:54:27.102Z,101485
2017-02-14T05:55:27.212Z,101473
2017-02-14T05:56:27.536Z,101486
2017-02-14T05:57:27.300Z,101490
2017-02-14T05:58:27.361Z,101485
2017-02-14T05:59:27.427Z,101485
2017-02-14T06:00:27.551Z,101490
2017-02-14T06:01:27.643Z,101492
2017-02-14T06:02:26.945Z,101495
2017-02-14T06:03:27.626Z,101493
2017-02-14T06:04:27.685Z,101488
2017-02-14T06:05:27.794Z,101488
2017-02-14T06:06:27.844Z,101497
2017-02-14T06:07:27.848Z,101495
2017-02-14T06:08:27.118Z,101496
2017-02-14T06:09:27.948Z,101498
2017-02-14T06:10:27.907Z,101495
2017-02-14T06:11:27.059Z,101499
2017-02-14T06:12:28.047Z,101499
2017-02-14T06:13:27.093Z,101506
2017-02-14T06:14:27.463Z,101504
2017-02-14T06:15:28.209Z,101504
2017-02-14T06:16:27.258Z,101504
2017-02-14T06:17:27.288Z,101508
2017-02-14T06:18:28.259Z,101509
2017-02-14T06:19:28.324Z,101511
2017-02-14T06:20:27.663Z,101509
2017-02-14T06:21:28.384Z,101509
2017-02-14T06:22:28.418Z,101509
2017-02-14T06:23:28.428Z,101508
2017-02-14T06:24:27.465Z,101502
2017-02-14T06:25:28.490Z,101510
2017-02-14T06:26:27.795Z,101508
2017-02-14T06:27:28.563Z,101511
2017-02-14T06:28:28.602Z,101524
2017-02-14T06:29:28.729Z,101508
2017-02-14T06:30:27.716Z,101516
2017-02-14T06:31:27.837Z,101511
2017-02-14T06:32:29.131Z,101519
2017-02-14T06:33:27.979Z,101529
2017-02-14T06:34:28.075Z,101533
2017-02-14T06:35:28.068Z,101527
2017-02-14T06:36:29.058Z,101526
2017-02-14T06:37:28.139Z,101529
2017-02-14T06:38:29.512Z,101522
2017-02-14T06:39:29.246Z,101528
2017-02-14T06:40:28.310Z,101524
2017-02-14T06:41:29.295Z,101522
2017-02-14T06:42:29.430Z,101521
2017-02-14T06:43:29.476Z,101522
2017-02-14T06:44:29.851Z,101527
2017-02-14T06:45:28.620Z,101535
2017-02-14T06:46:29.632Z,101533
2017-02-14T06:47:28.671Z,101533
2017-02-14T06:48:29.738Z,101535
2017-02-14T06:49:29.781Z,101540
2017-02-14T06:50:29.107Z,101541
2017-02-14T06:51:29.838Z,101544
2017-02-14T06:52:31.206Z,101545
2017-02-14T06:53:29.055Z,101548
2017-02-14T06:54:29.123Z,101547
2017-02-14T06:55:30.120Z,101550
2017-02-14T06:56:29.565Z,101555
2017-02-14T06:57:29.327Z,101551
2017-02-14T06:58:30.410Z,101556
2017-02-14T06:59:30.417Z,101558
2017-02-14T07:00:30.471Z,101557
2017-02-14T07:01:29.533Z,101557
2017-02-14T07:02:30.844Z,101557
2017-02-14T07:03:30.616Z,101556
2017-02-14T07:04:29.762Z,101558
2017-02-14T07:05:30.783Z,101557
2017-02-14T07:06:30.883Z,101562
2017-02-14T07:07:30.008Z,101563
2017-02-14T07:08:31.253Z,101564
2017-02-14T07:09:31.046Z,101560
2017-02-14T07:10:30.114Z,101564
2017-02-14T07:11:31.196Z,101559
2017-02-14T07:12:31.168Z,101567
2017-02-14T07:13:30.275Z,101571
2017-02-14T07:14:30.607Z,101568
2017-02-14T07:15:31.347Z,101563
2017-02-14T07:16:30.427Z,101568
2017-02-14T07:17:31.483Z,101561
2017-02-14T07:18:30.586Z,101568
2017-02-14T07:19:31.625Z,101565
2017-02-14T07:20:31.926Z,101573
2017-02-14T07:21:30.735Z,101575
2017-02-14T07:22:31.730Z,101576
2017-02-14T07:23:30.785Z,101578
2017-02-14T07:24:31.800Z,101568
2017-02-14T07:25:31.863Z,101579
2017-02-14T07:26:31.256Z,101581
2017-02-14T07:27:31.975Z,101572
2017-02-14T07:28:32.053Z,101587
2017-02-14T07:29:31.185Z,101584
2017-02-14T07:30:31.272Z,101583
2017-02-14T07:31:32.282Z,101580
2017-02-14T07:32:31.637Z,101592
2017-02-14T07:33:31.430Z,101589
2017-02-14T07:34:32.452Z,101592
2017-02-14T07:35:31.556Z,101595
2017-02-14T07:36:31.597Z,101589
2017-02-14T07:37:32.584Z,101599
2017-02-14T07:38:32.885Z,101597
2017-02-14T07:39:32.670Z,101590
2017-02-14T07:40:31.732Z,101601
2017-02-14T07:41:32.790Z,101601
2017-02-14T07:42:32.544Z,101592
2017-02-14T07:43:34.108Z,101598
2017-02-14T07:44:37.313Z,101601
2017-02-14T07:45:32.046Z,101603
2017-02-14T07:46:32.145Z,101599
2017-02-14T07:47:33.142Z,101601
2017-02-14T07:48:32.201Z,101599
2017-02-14T07:49:33.175Z,101604
2017-02-14T07:50:32.542Z,101599
2017-02-14T07:51:32.265Z,101606
2017-02-14T07:52:32.353Z,101607
2017-02-14T07:53:33.308Z,101608
2017-02-14T07:54:32.429Z,101609
2017-02-14T07:55:33.428Z,101609
2017-02-14T07:56:32.831Z,101608
2017-02-14T07:57:32.579Z,101614
2017-02-14T07:58:32.568Z,101613
2017-02-14T07:59:33.499Z,101604
2017-02-14T08:00:32.618Z,101615
2017-02-14T08:01:32.610Z,101609
2017-02-14T08:02:32.920Z,101615
2017-02-14T08:03:32.727Z,101618
2017-02-14T08:04:32.765Z,101612
2017-02-14T08:05:35.769Z,101621
2017-02-14T08:06:32.849Z,101623
2017-02-14T08:07:32.910Z,101620
2017-02-14T08:08:33.270Z,101620
2017-02-14T08:09:33.012Z,101615
2017-02-14T08:10:33.124Z,101622
2017-02-14T08:11:33.225Z,101626
2017-02-14T08:12:34.268Z,101620
2017-02-14T08:13:33.416Z,101627
2017-02-14T08:14:34.689Z,101630
2017-02-14T08:15:33.531Z,101629
2017-02-14T08:16:34.618Z,101630
2017-02-14T08:17:33.605Z,101629
2017-02-14T08:18:34.630Z,101636
2017-02-14T08:19:33.700Z,101624
2017-02-14T08:20:35.037Z,101626
2017-02-14T08:21:34.792Z,101638
2017-02-14T08:22:34.850Z,101639
2017-02-14T08:23:34.924Z,101637
2017-02-14T08:24:34.958Z,101631
2017-02-14T08:25:34.029Z,101636
2017-02-14T08:26:35.306Z,101636
2017-02-14T08:27:35.072Z,101637
2017-02-14T08:28:34.165Z,101630
2017-02-14T08:29:34.210Z,101638
2017-02-14T08:30:34.256Z,101638
2017-02-14T08:31:35.211Z,101641
2017-02-14T08:32:34.563Z,101636
2017-02-14T08:33:35.212Z,101642
2017-02-14T08:34:35.318Z,101641
2017-02-14T08:35:35.406Z,101643
2017-02-14T08:36:35.363Z,101642
2017-02-14T08:37:34.488Z,101648
2017-02-14T08:38:35.721Z,101646
2017-02-14T08:39:35.598Z,101647
2017-02-14T08:40:35.566Z,101651
2017-02-14T08:41:35.661Z,101651
2017-02-14T08:42:34.785Z,101656
2017-02-14T08:43:35.794Z,101656
2017-02-14T08:44:35.140Z,101643
2017-02-14T08:45:34.903Z,101659
2017-02-14T08:46:35.829Z,101660
2017-02-14T08:47:34.895Z,101661
2017-02-14T08:48:35.961Z,101654
2017-02-14T08:49:36.080Z,101653
2017-02-14T08:50:36.437Z,101656
2017-02-14T08:51:35.281Z,101659
2017-02-14T08:52:35.356Z,101660
2017-02-14T08:53:35.907Z,101656
2017-02-14T08:54:36.399Z,101657
2017-02-14T08:55:35.515Z,101659
2017-02-14T08:56:36.829Z,101648
2017-02-14T08:57:36.573Z,101655
2017-02-14T08:58:35.610Z,101668
2017-02-14T08:59:35.675Z,101661
2017-02-14T09:00:35.733Z,101662
2017-02-14T09:01:36.754Z,101666
2017-02-14T09:02:37.119Z,101675
2017-02-14T09:03:36.877Z,101666
2017-02-14T09:04:37.251Z,101671
2017-02-14T09:05:36.036Z,101673
2017-02-14T09:06:36.090Z,101668
2017-02-14T09:07:37.117Z,101671
2017-02-14T09:08:36.532Z,101672
2017-02-14T09:09:37.305Z,101672
2017-02-14T09:10:37.369Z,101669
2017-02-14T09:11:36.411Z,101666
2017-02-14T09:12:36.472Z,101665
2017-02-14T09:13:36.514Z,101673
2017-02-14T09:14:37.864Z,101674
2017-02-14T09:15:36.607Z,101671
2017-02-14T09:16:37.671Z,101676
2017-02-14T09:17:37.787Z,101666
2017-02-14T09:18:37.860Z,101668
2017-02-14T09:19:36.964Z,101665
2017-02-14T09:20:37.261Z,101666
2017-02-14T09:21:37.053Z,101672
2017-02-14T09:22:38.059Z,101666
2017-02-14T09:23:38.148Z,101675
2017-02-14T09:24:37.135Z,101674
2017-02-14T09:25:37.218Z,101677
2017-02-14T09:26:37.579Z,101680
2017-02-14T09:27:37.312Z,101679
2017-02-14T09:28:38.383Z,101679
2017-02-14T09:29:37.526Z,101680
2017-02-14T09:30:38.496Z,101687
2017-02-14T09:31:37.607Z,101680
2017-02-14T09:32:37.925Z,101679
2017-02-14T09:33:37.705Z,101691
2017-02-14T09:34:37.812Z,101680
2017-02-14T09:35:37.820Z,101687
2017-02-14T09:36:37.810Z,101682
2017-02-14T09:37:37.945Z,101691
2017-02-14T09:38:38.151Z,101694
2017-02-14T09:39:38.016Z,101690
2017-02-14T09:40:38.732Z,101695
2017-02-14T09:41:38.036Z,101695
2017-02-14T09:42:38.705Z,101694
2017-02-14T09:43:38.149Z,101684
2017-02-14T09:44:39.392Z,101687
2017-02-14T09:45:38.229Z,101695
2017-02-14T09:46:38.304Z,101696
2017-02-14T09:47:39.983Z,101695
2017-02-14T09:48:38.338Z,101696
2017-02-14T09:49:39.371Z,101697
2017-02-14T09:50:38.716Z,101698
2017-02-14T09:51:39.479Z,101699
2017-02-14T09:52:39.467Z,101702
2017-02-14T09:53:38.527Z,101705
2017-02-14T09:54:38.540Z,101666
2017-02-14T09:55:39.578Z,101705
2017-02-14T09:56:39.884Z,101706
2017-02-14T09:57:39.665Z,101705
2017-02-14T09:58:39.713Z,101706
2017-02-14T09:59:39.729Z,101702
2017-02-14T10:00:38.930Z,101714
2017-02-14T10:01:39.942Z,101710
2017-02-14T10:02:40.295Z,101719
2017-02-14T10:03:40.029Z,101720
2017-02-14T10:04:40.053Z,101712
2017-02-14T10:05:39.154Z,101722
2017-02-14T10:06:39.224Z,101721
2017-02-14T10:07:40.820Z,101722
2017-02-14T10:08:39.653Z,101714
2017-02-14T10:09:39.411Z,101712
2017-02-14T10:10:39.427Z,101718
2017-02-14T10:11:39.506Z,101721
2017-02-14T10:12:40.559Z,101720
2017-02-14T10:13:39.594Z,101718
2017-02-14T10:14:39.947Z,101719
2017-02-14T10:15:39.785Z,101714
2017-02-14T10:16:40.763Z,101713
2017-02-14T10:17:40.847Z,101726
2017-02-14T10:18:39.901Z,101721
2017-02-14T10:19:40.637Z,101718
2017-02-14T10:20:40.312Z,101719
2017-02-14T10:21:41.035Z,101717
2017-02-14T10:22:40.207Z,101726
2017-02-14T10:23:40.193Z,101722
2017-02-14T10:24:40.212Z,101724
2017-02-14T10:25:41.224Z,101712
2017-02-14T10:26:40.586Z,101724
2017-02-14T10:27:40.341Z,101722
2017-02-14T10:28:41.397Z,101722
2017-02-14T10:29:41.419Z,101722
2017-02-14T10:30:41.534Z,101716
2017-02-14T10:31:40.630Z,101726
2017-02-14T10:32:40.975Z,101728
2017-02-14T10:33:41.707Z,101730
2017-02-14T10:34:40.862Z,101731
2017-02-14T10:35:41.832Z,101734
2017-02-14T10:36:41.848Z,101736
2017-02-14T10:37:41.948Z,101736
2017-02-14T10:38:41.273Z,101735
2017-02-14T10:39:41.014Z,101737
2017-02-14T10:40:42.015Z,101739
2017-02-14T10:41:41.104Z,101739
2017-02-14T10:42:41.194Z,101732
2017-02-14T10:43:41.199Z,101740
2017-02-14T10:44:41.517Z,101738
2017-02-14T10:45:41.400Z,101727
2017-02-14T10:46:42.357Z,101734
2017-02-14T10:47:42.377Z,101733
2017-02-14T10:48:42.478Z,101737
2017-02-14T10:49:42.510Z,101733
2017-02-14T10:50:41.901Z,101736
2017-02-14T10:51:41.686Z,101736
2017-02-14T10:52:41.740Z,101733
2017-02-14T10:53:41.771Z,101734
2017-02-14T10:54:41.827Z,101725
2017-02-14T10:55:43.572Z,101731
2017-02-14T10:56:42.925Z,101732
2017-02-14T10:57:42.995Z,101723
2017-02-14T10:58:42.988Z,101725
2017-02-14T10:59:42.996Z,101727
2017-02-14T11:00:42.129Z,101719
2017-02-14T11:01:43.186Z,101717
2017-02-14T11:02:42.351Z,101720
2017-02-14T11:03:42.400Z,101717
2017-02-14T11:04:42.409Z,101709
2017-02-14T11:05:42.320Z,101724
2017-02-14T11:06:43.454Z,101717
2017-02-14T11:07:42.559Z,101713
2017-02-14T11:08:42.618Z,101719
2017-02-14T11:09:43.588Z,101719
2017-02-14T11:10:43.667Z,101724
2017-02-14T11:11:43.660Z,101725
2017-02-14T11:12:43.710Z,101728
2017-02-14T11:13:42.873Z,101731
2017-02-14T11:14:44.198Z,101724
2017-02-14T11:15:43.937Z,101728
2017-02-14T11:16:43.090Z,101728
2017-02-14T11:17:44.061Z,101729
2017-02-14T11:18:43.120Z,101734
2017-02-14T11:19:43.258Z,101728
2017-02-14T11:20:43.610Z,101725
2017-02-14T11:21:43.268Z,101727
2017-02-14T11:22:43.428Z,101730
2017-02-14T11:23:44.363Z,101723
2017-02-14T11:24:44.433Z,101726
2017-02-14T11:25:43.486Z,101723
2017-02-14T11:26:43.882Z,101724
2017-02-14T11:27:44.651Z,101723
2017-02-14T11:28:43.856Z,101722
2017-02-14T11:29:44.828Z,101722
2017-02-14T11:30:44.915Z,101722
2017-02-14T11:31:44.922Z,101716
2017-02-14T11:32:43.924Z,101720
2017-02-14T11:33:44.019Z,101717
2017-02-14T11:34:43.989Z,101715
2017-02-14T11:35:45.073Z,101719
2017-02-14T11:36:45.154Z,101716
2017-02-14T11:37:45.149Z,101718
2017-02-14T11:38:45.299Z,101717
2017-02-14T11:39:44.341Z,101718
2017-02-14T11:40:44.384Z,101717
2017-02-14T11:41:45.070Z,101717
2017-02-14T11:42:44.495Z,101715
2017-02-14T11:43:44.586Z,101712
2017-02-14T11:44:45.630Z,101714
2017-02-14T11:45:45.666Z,101705
2017-02-14T11:46:45.753Z,101713
2017-02-14T11:47:44.767Z,101714
2017-02-14T11:48:45.853Z,101715
2017-02-14T11:49:44.973Z,101714
2017-02-14T11:50:45.031Z,101713
2017-02-14T11:51:46.032Z,101714
2017-02-14T11:52:46.103Z,101711
2017-02-14T11:53:45.136Z,101715
2017-02-14T11:54:46.181Z,101712
2017-02-14T11:55:46.192Z,101705
2017-02-14T11:56:46.801Z,101715
2017-02-14T11:57:45.352Z,101710
2017-02-14T11:58:45.412Z,101714
2017-02-14T11:59:45.546Z,101706
2017-02-14T12:00:45.531Z,101707
2017-02-14T12:01:45.568Z,101707
2017-02-14T12:02:46.644Z,101705
2017-02-14T12:03:45.777Z,101701
2017-02-14T12:04:45.736Z,101700
2017-02-14T12:05:45.860Z,101694
2017-02-14T12:06:45.841Z,101707
2017-02-14T12:07:46.910Z,101700
2017-02-14T12:08:46.000Z,101704
2017-02-14T12:09:47.035Z,101711
2017-02-14T12:10:46.139Z,101708
2017-02-14T12:11:46.258Z,101709
2017-02-14T12:12:47.269Z,101705
2017-02-14T12:13:46.272Z,101701
2017-02-14T12:14:46.381Z,101703
2017-02-14T12:15:46.404Z,101701
2017-02-14T12:16:46.446Z,101701
2017-02-14T12:17:46.505Z,101691
2017-02-14T12:18:47.581Z,101703
2017-02-14T12:19:47.618Z,101692
2017-02-14T12:20:47.665Z,101697
2017-02-14T12:21:46.757Z,101700
2017-02-14T12:22:46.725Z,101697
2017-02-14T12:23:46.791Z,101699
2017-02-14T12:24:46.838Z,101697
2017-02-14T12:25:47.866Z,101693
2017-02-14T12:26:46.920Z,101694
2017-02-14T12:27:47.965Z,101692
2017-02-14T12:28:46.983Z,101689